Time;durP1;ratioP1;P1;durP2;ratioP2;P2;SDS_P1;SDS_P2;PMS_P1;PMS_P2;Temp;Humidity;BMP_temperature;BMP_pressure;BME280_temperature;BME280_humidity;BME280_pressure;Samples;Min_cycle;Max_cycle;Signal;HPM_P1;HPM_P2
2022/01/18 00:01:52;;;;;;;6.00;3.10;;;;;;;-4.51;78.79;97418.25;110542;1244;69778;-66
2022/01/18 00:04:22;;;;;;;7.90;4.10;;;;;;;-4.49;78.59;97418.05;110575;1245;68570;-66
2022/01/18 00:06:53;;;;;;;4.60;3.10;;;;;;;-4.47;78.57;97423.48;110500;1244;69448;-65
2022/01/18 00:09:25;;;;;;;5.70;3.70;;;;;;;-4.47;78.33;97422.63;110519;1244;58868;-67
2022/01/18 00:12:12;;;;;;;5.20;3.40;;;;;;;-4.48;78.35;97426.89;110473;1244;58913;-65
2022/01/18 00:14:45;;;;;;;5.70;3.00;;;;;;;-4.47;78.22;97429.08;110389;1247;70237;-66
2022/01/18 00:17:29;;;;;;;4.40;2.90;;;;;;;-4.46;78.14;97428.23;110269;1247;68818;-66
2022/01/18 00:19:58;;;;;;;3.70;2.90;;;;;;;-4.46;78.13;97436.39;110469;1247;68870;-66
2022/01/18 00:22:29;;;;;;;5.70;3.90;;;;;;;-4.46;78.13;97441.83;110488;1244;58897;-66
2022/01/18 00:25:00;;;;;;;4.20;3.60;;;;;;;-4.47;78.11;97449.16;110474;1245;59173;-65
2022/01/18 00:27:30;;;;;;;5.60;3.10;;;;;;;-4.48;78.05;97447.48;110141;1247;70670;-66
2022/01/18 00:30:25;;;;;;;;;;;;;;;-4.50;77.95;97448.85;110090;1247;67709;-65
2022/01/18 00:35:31;;;;;;;6.90;3.90;;;;;;;-4.45;77.83;97467.16;110105;1247;58909;-65
2022/01/18 00:38:14;;;;;;;10.40;4.40;;;;;;;-4.41;77.71;97471.88;110264;1247;58917;-66
2022/01/18 00:40:43;;;;;;;3.10;2.60;;;;;;;-4.38;77.55;97478.64;110254;1247;70804;-65
2022/01/18 00:43:13;;;;;;;4.80;3.60;;;;;;;-4.36;77.56;97487.12;110405;1246;67819;-65
2022/01/18 00:45:43;;;;;;;;;;;;;;;-4.36;77.49;97498.52;110201;1244;69399;-64
2022/01/18 00:48:13;;;;;;;5.70;2.90;;;;;;;-4.34;77.37;97500.05;110470;1245;58957;-66
2022/01/18 00:50:45;;;;;;;5.20;3.20;;;;;;;-4.34;77.40;97511.77;110332;1247;58869;-65
2022/01/18 00:53:17;;;;;;;7.80;4.50;;;;;;;-4.35;77.50;97524.88;110175;1247;70660;-65
2022/01/18 00:56:03;;;;;;;5.60;3.50;;;;;;;-4.30;77.28;97529.59;110532;1247;68601;-65
2022/01/18 00:58:34;;;;;;;4.80;3.40;;;;;;;-4.24;77.34;97540.41;110139;1247;69380;-64
2022/01/18 01:01:04;;;;;;;4.90;2.00;;;;;;;-4.19;77.36;97547.83;110136;1247;59079;-64
2022/01/18 01:03:35;;;;;;;6.70;4.20;;;;;;;-4.14;77.27;97559.02;110060;1246;58874;-68
2022/01/18 01:06:07;;;;;;;7.90;3.90;;;;;;;-4.08;77.09;97558.77;110303;1247;70810;-65
2022/01/18 01:08:37;;;;;;;4.70;2.90;;;;;;;-4.03;77.21;97557.34;110068;1247;67835;-64
2022/01/18 01:11:10;;;;;;;5.80;4.50;;;;;;;-4.00;77.48;97555.44;110454;1247;67874;-65
2022/01/18 01:13:45;;;;;;;8.30;4.70;;;;;;;-4.00;77.03;97558.33;110417;1247;58845;-66
2022/01/18 01:16:44;;;;;;;7.30;4.30;;;;;;;-3.99;76.89;97566.66;110180;1247;58800;-67
2022/01/18 01:32:11;;;;;;;4.30;3.60;;;;;;;-3.94;76.76;97566.77;110423;1245;70224;-64
2022/01/18 01:44:43;;;;;;;3.90;2.80;;;;;;;-3.72;76.41;97620.98;109801;1254;58885;-65
2022/01/18 01:47:22;;;;;;;4.00;2.70;;;;;;;-3.74;76.18;97617.78;110126;1247;69812;-65
2022/01/18 01:49:53;;;;;;;5.70;3.40;;;;;;;-3.77;76.71;97620.71;110333;1247;68370;-64
2022/01/18 01:52:23;;;;;;;5.60;2.60;;;;;;;-3.81;76.65;97625.70;110172;1247;68479;-68
2022/01/18 01:54:54;;;;;;;7.10;3.50;;;;;;;-3.87;76.74;97634.27;110343;1247;58894;-66
2022/01/18 01:57:24;;;;;;;4.80;3.20;;;;;;;-3.91;76.96;97646.26;110191;1247;58817;-68
2022/01/18 01:59:57;;;;;;;;;;;;;;;-3.97;76.86;97648.02;110631;1247;70693;-68
2022/01/18 02:02:30;;;;;;;3.60;2.70;;;;;;;-3.99;76.66;97655.36;110554;1245;67887;-67
2022/01/18 02:05:01;;;;;;;5.30;3.50;;;;;;;-3.99;76.63;97650.94;110533;1247;68593;-66
2022/01/18 02:07:32;;;;;;;4.20;3.00;;;;;;;-3.97;76.38;97656.71;110071;1247;59058;-66
2022/01/18 02:10:07;;;;;;;5.40;3.60;;;;;;;-3.96;76.60;97654.14;110232;1245;58903;-66
2022/01/18 02:12:38;;;;;;;5.00;3.10;;;;;;;-3.96;76.69;97662.66;110113;1247;70598;-69
2022/01/18 02:15:17;;;;;;;4.60;3.80;;;;;;;-4.00;76.58;97665.92;110604;1247;66710;-67
2022/01/18 02:23:32;;;;;;;6.50;3.80;;;;;;;-4.02;76.16;97675.31;110185;1247;58858;-66
2022/01/18 02:26:02;;;;;;;6.50;3.70;;;;;;;-4.03;76.10;97682.81;110421;1244;69895;-65
2022/01/18 02:28:32;;;;;;;4.60;4.00;;;;;;;-4.04;76.02;97683.17;110488;1245;68020;-65
2022/01/18 02:31:03;;;;;;;6.00;3.50;;;;;;;-4.04;76.00;97693.56;110075;1246;68534;-64
2022/01/18 02:33:34;;;;;;;8.30;3.40;;;;;;;-4.03;76.04;97706.31;110294;1245;58927;-65
2022/01/18 02:36:07;;;;;;;5.20;3.00;;;;;;;-4.04;76.02;97702.91;110443;1247;58933;-65
2022/01/18 02:38:37;;;;;;;6.80;3.40;;;;;;;-3.99;75.99;97715.47;110299;1247;69707;-65
2022/01/18 02:41:07;;;;;;;5.30;3.90;;;;;;;-3.92;75.46;97719.82;110042;1247;68437;-64
2022/01/18 02:43:46;;;;;;;;;;;;;;;-3.84;75.16;97734.39;110118;1247;68615;-64
2022/01/18 02:46:18;;;;;;;4.30;2.90;;;;;;;-3.77;75.13;97739.23;110116;1246;58967;-66
2022/01/18 02:48:48;;;;;;;5.40;4.10;;;;;;;-3.70;74.96;97737.13;110266;1247;59294;-64
2022/01/18 02:51:18;;;;;;;6.20;3.80;;;;;;;-3.63;74.61;97742.16;110369;1247;70905;-65
2022/01/18 02:54:17;;;;;;;5.30;2.90;;;;;;;-3.56;74.40;97746.17;110522;1246;67755;-65
2022/01/18 02:56:53;;;;;;;4.30;3.20;;;;;;;-3.50;74.30;97738.09;110180;1247;68322;-66
2022/01/18 02:59:43;;;;;;;5.80;3.20;;;;;;;-3.48;74.27;97746.59;110560;1247;58861;-65
2022/01/18 03:05:16;;;;;;;5.40;3.30;;;;;;;-3.41;73.67;97760.33;110616;1246;70764;-66
2022/01/18 03:07:46;;;;;;;6.30;3.20;;;;;;;-3.40;73.98;97768.65;110644;1247;67822;-66
2022/01/18 03:10:16;;;;;;;5.60;2.70;;;;;;;-3.38;73.55;97775.44;110586;1246;69472;-66
2022/01/18 03:12:46;;;;;;;;;;;;;;;-3.37;73.23;97780.38;110433;1246;58868;-64
2022/01/18 03:15:16;;;;;;;5.10;3.40;;;;;;;-3.36;73.58;97784.96;110515;1247;58819;-66
2022/01/18 03:17:46;;;;;;;5.60;4.00;;;;;;;-3.36;73.36;97781.73;110477;1244;68984;-64
2022/01/18 03:20:19;;;;;;;2.50;2.20;;;;;;;-3.39;73.16;97782.77;110345;1247;67762;-66
2022/01/18 03:22:50;;;;;;;5.10;2.90;;;;;;;-3.38;73.40;97787.20;110250;1247;69218;-65
2022/01/18 03:25:29;;;;;;;3.80;2.70;;;;;;;-3.38;73.08;97792.98;110099;1247;58868;-66
2022/01/18 03:28:06;;;;;;;6.00;3.50;;;;;;;-3.39;72.64;97797.77;110305;1246;58820;-66
2022/01/18 03:30:43;;;;;;;6.20;2.90;;;;;;;-3.39;72.94;97794.87;110560;1247;70675;-66
2022/01/18 03:33:16;;;;;;;3.00;2.70;;;;;;;-3.39;73.54;97794.52;110357;1246;68301;-66
2022/01/18 03:35:50;;;;;;;5.10;3.10;;;;;;;-3.38;73.07;97794.18;110233;1246;69537;-67
2022/01/18 03:38:21;;;;;;;4.10;2.70;;;;;;;-3.41;72.33;97800.71;110533;1247;58938;-67
2022/01/18 03:40:51;;;;;;;4.00;2.60;;;;;;;-3.42;73.20;97808.38;110536;1247;58911;-66
2022/01/18 03:43:21;;;;;;;5.80;2.60;;;;;;;-3.45;73.14;97808.26;110447;1244;70682;-67
2022/01/18 03:45:54;;;;;;;5.10;3.00;;;;;;;-3.47;72.65;97816.45;110101;1247;67487;-67
2022/01/18 03:48:32;;;;;;;6.10;3.00;;;;;;;-3.46;73.20;97814.90;110433;1247;69386;-65
2022/01/18 03:51:05;;;;;;;6.70;2.60;;;;;;;-3.47;73.22;97808.61;110168;1247;58942;-68
2022/01/18 03:53:35;;;;;;;4.10;3.30;;;;;;;-3.49;72.97;97816.30;110316;1247;58974;-66
2022/01/18 03:56:05;;;;;;;4.70;3.60;;;;;;;-3.51;72.63;97817.33;110164;1247;69953;-67
2022/01/18 03:58:35;;;;;;;2.90;2.60;;;;;;;-3.55;72.69;97822.16;110493;1245;67743;-65
2022/01/18 04:01:05;;;;;;;4.60;3.30;;;;;;;-3.56;72.72;97824.02;110285;1247;67678;-65
2022/01/18 04:03:34;;;;;;;4.60;3.00;;;;;;;-3.56;73.27;97825.90;110258;1245;58880;-66
2022/01/18 04:06:05;;;;;;;5.00;2.90;;;;;;;-3.61;72.96;97828.34;110165;1247;58857;-65
2022/01/18 04:08:35;;;;;;;6.10;3.10;;;;;;;-3.68;72.99;97829.78;110453;1247;70043;-67
2022/01/18 04:11:05;;;;;;;4.50;2.90;;;;;;;-3.73;72.86;97833.91;110586;1246;68470;-67
2022/01/18 04:13:34;;;;;;;4.50;2.80;;;;;;;-3.79;72.58;97838.06;110487;1246;69452;-64
2022/01/18 04:16:04;;;;;;;5.30;2.90;;;;;;;-3.83;72.79;97841.66;110330;1246;58894;-66
2022/01/18 04:18:50;;;;;;;3.50;2.90;;;;;;;-3.89;72.91;97844.95;110382;1245;58938;-66
2022/01/18 04:26:57;;;;;;;3.10;2.60;;;;;;;-4.03;73.37;97850.68;110186;1247;68490;-65
2022/01/18 04:29:27;;;;;;;4.90;3.30;;;;;;;-4.05;72.83;97851.73;110352;1246;58941;-64
2022/01/18 04:31:57;;;;;;;;;;;;;;;-4.09;72.62;97861.80;110561;1244;58856;-65
2022/01/18 04:34:27;;;;;;;4.50;3.20;;;;;;;-4.15;72.84;97867.29;110201;1247;70035;-64
2022/01/18 04:36:56;;;;;;;4.80;3.30;;;;;;;-4.20;73.20;97868.69;110250;1244;68621;-64
2022/01/18 04:39:28;;;;;;;2.40;2.20;;;;;;;-4.28;73.39;97871.80;110201;1244;68772;-65
2022/01/18 04:41:57;;;;;;;4.90;2.90;;;;;;;-4.31;73.59;97872.16;110158;1246;58890;-65
2022/01/18 04:50:07;;;;;;;3.10;2.10;;;;;;;-4.36;73.19;97868.95;110212;1247;68715;-64
2022/01/18 04:52:37;;;;;;;6.10;3.80;;;;;;;-4.36;73.16;97873.23;110092;1247;69088;-67
2022/01/18 04:55:08;;;;;;;6.60;3.40;;;;;;;-4.36;73.34;97881.73;110241;1247;58843;-66
2022/01/18 04:57:53;;;;;;;6.20;4.10;;;;;;;-4.42;73.11;97882.45;110339;1247;58861;-66
2022/01/18 05:00:24;;;;;;;4.90;2.80;;;;;;;-4.48;73.10;97887.92;110076;1247;71111;-67
2022/01/18 05:02:54;;;;;;;6.10;3.70;;;;;;;-4.50;73.33;97888.62;110075;1247;68741;-66
2022/01/18 05:05:29;;;;;;;8.60;4.60;;;;;;;-4.55;73.27;97891.36;110308;1247;69602;-68
2022/01/18 05:08:01;;;;;;;5.40;3.80;;;;;;;-4.58;73.28;97891.20;110286;1246;58933;-66
2022/01/18 05:10:32;;;;;;;5.10;3.40;;;;;;;-4.58;73.10;97894.94;110252;1246;58933;-66
2022/01/18 05:13:11;;;;;;;5.90;4.10;;;;;;;-4.61;73.20;97896.50;110268;1247;69486;-68
2022/01/18 05:15:55;;;;;;;5.50;3.20;;;;;;;-4.64;73.29;97903.48;110215;1247;68568;-66
2022/01/18 05:23:45;;;;;;;5.00;4.00;;;;;;;-4.64;73.25;97906.36;110029;1247;58869;-68
2022/01/18 05:26:14;;;;;;;5.20;3.90;;;;;;;-4.62;73.11;97905.53;110297;1247;69980;-68
2022/01/18 05:28:43;;;;;;;3.80;3.10;;;;;;;-4.62;73.17;97909.60;110193;1247;68103;-68
2022/01/18 05:31:13;;;;;;;8.80;4.70;;;;;;;-4.64;73.09;97908.06;110295;1247;69231;-66
2022/01/18 05:33:47;;;;;;;2.70;2.20;;;;;;;-4.66;73.34;97917.78;110294;1246;58940;-67
2022/01/18 05:36:22;;;;;;;3.60;3.00;;;;;;;-4.70;73.56;97915.77;110077;1246;58844;-62
2022/01/18 05:38:52;;;;;;;3.60;2.60;;;;;;;-4.69;73.18;97919.83;110133;1247;70274;-66
2022/01/18 05:41:22;;;;;;;6.90;3.70;;;;;;;-4.66;73.16;97923.73;110180;1247;68643;-67
2022/01/18 05:43:52;;;;;;;6.40;3.90;;;;;;;-4.66;72.96;97927.13;110077;1247;69230;-66
2022/01/18 05:46:24;;;;;;;4.20;2.50;;;;;;;-4.71;73.06;97936.00;110292;1244;58880;-67
2022/01/18 05:48:54;;;;;;;6.50;4.00;;;;;;;-4.74;73.50;97939.58;110335;1244;58862;-66
2022/01/18 05:51:23;;;;;;;7.10;3.90;;;;;;;-4.77;73.40;97939.26;110320;1244;70848;-66
2022/01/18 05:53:53;;;;;;;3.90;3.30;;;;;;;-4.77;73.27;97939.42;110445;1246;68676;-65
2022/01/18 05:56:23;;;;;;;3.70;3.00;;;;;;;-4.75;73.03;97940.79;110152;1245;69424;-66
2022/01/18 05:58:55;;;;;;;4.90;3.20;;;;;;;-4.72;73.22;97941.44;110289;1246;58904;-66
2022/01/18 06:01:26;;;;;;;5.00;3.10;;;;;;;-4.72;73.19;97946.70;110379;1246;58879;-66
2022/01/18 06:09:16;;;;;;;3.10;2.80;;;;;;;-4.71;73.13;97947.91;110177;1246;68695;-68
2022/01/18 06:11:45;;;;;;;6.30;3.70;;;;;;;-4.72;73.05;97957.77;110289;1246;59259;-66
2022/01/18 06:14:15;;;;;;;4.70;3.50;;;;;;;-4.73;72.87;97959.83;110262;1245;58912;-64
2022/01/18 06:16:45;;;;;;;6.30;4.10;;;;;;;-4.75;73.08;97958.64;110466;1246;69982;-66
2022/01/18 06:19:14;;;;;;;3.60;3.20;;;;;;;-4.75;72.76;97954.90;110438;1246;68982;-66
2022/01/18 06:21:44;;;;;;;5.40;3.70;;;;;;;-4.75;72.80;97956.94;110151;1247;68972;-67
2022/01/18 06:24:14;;;;;;;8.10;4.20;;;;;;;-4.75;72.65;97962.20;110424;1245;58818;-66
2022/01/18 06:27:03;;;;;;;7.70;3.40;;;;;;;-4.72;73.16;97963.22;110312;1247;58839;-67
2022/01/18 06:29:32;;;;;;;5.70;3.00;;;;;;;-4.68;72.89;97960.64;110218;1247;71420;-65
2022/01/18 06:32:04;;;;;;;7.60;4.10;;;;;;;-4.67;72.83;97969.83;110133;1247;67827;-64
2022/01/18 06:34:34;;;;;;;5.60;3.70;;;;;;;-4.68;72.41;97978.68;110218;1247;69574;-64
2022/01/18 06:37:04;;;;;;;6.50;4.00;;;;;;;-4.66;72.39;97986.16;110131;1246;58919;-65
2022/01/18 06:39:33;;;;;;;5.50;3.60;;;;;;;-4.68;72.17;97997.91;110086;1247;58934;-66
2022/01/18 06:42:14;;;;;;;7.90;3.80;;;;;;;-4.68;72.51;98004.69;110156;1245;70073;-65
2022/01/18 06:44:43;;;;;;;6.00;3.70;;;;;;;-4.65;73.00;98003.16;110499;1247;67844;-65
2022/01/18 06:47:12;;;;;;;8.60;3.40;;;;;;;-4.62;72.65;98007.41;110481;1244;68630;-66
2022/01/18 06:49:42;;;;;;;6.60;4.40;;;;;;;-4.55;72.14;98014.37;110289;1247;58909;-64
2022/01/18 06:52:11;;;;;;;7.60;4.70;;;;;;;-4.48;71.82;98020.46;110316;1247;58935;-66
2022/01/18 06:54:40;;;;;;;8.00;5.20;;;;;;;-4.39;71.61;98029.11;110580;1245;70044;-66
2022/01/18 06:57:09;;;;;;;11.10;4.90;;;;;;;-4.30;71.10;98026.70;110354;1245;68375;-64
2022/01/18 06:59:38;;;;;;;10.10;5.90;;;;;;;-4.20;71.11;98023.23;110417;1246;68723;-67
2022/01/18 07:02:08;;;;;;;5.60;3.70;;;;;;;-4.10;70.60;98022.17;110178;1246;58963;-65
2022/01/18 07:04:37;;;;;;;7.60;4.20;;;;;;;-3.98;70.34;98020.92;110274;1244;59305;-69
2022/01/18 07:07:06;;;;;;;6.40;4.20;;;;;;;-3.84;69.63;98028.67;110563;1244;70862;-66
2022/01/18 07:09:35;;;;;;;7.50;3.60;;;;;;;-3.69;70.09;98032.49;110443;1246;69115;-65
2022/01/18 07:12:10;;;;;;;7.30;3.30;;;;;;;-3.51;69.14;98031.02;110430;1245;68661;-66
2022/01/18 07:14:40;;;;;;;6.50;3.90;;;;;;;-3.36;68.93;98030.57;110445;1244;58908;-66
2022/01/18 07:17:09;;;;;;;8.60;4.60;;;;;;;-3.21;68.68;98037.61;110479;1245;58832;-65
2022/01/18 07:19:38;;;;;;;7.20;4.40;;;;;;;-3.07;68.72;98039.38;110040;1247;70670;-66
2022/01/18 07:22:07;;;;;;;6.90;5.00;;;;;;;-2.92;68.52;98047.95;110238;1245;67834;-65
2022/01/18 07:24:40;;;;;;;6.30;3.90;;;;;;;-2.78;67.33;98049.18;110439;1244;68668;-67
2022/01/18 07:27:14;;;;;;;4.60;2.70;;;;;;;-2.50;67.30;98051.45;110378;1245;58880;-67
2022/01/18 07:29:44;;;;;;;9.20;4.60;;;;;;;-2.06;66.08;98054.70;110168;1247;58958;-65
2022/01/18 07:32:13;;;;;;;;;;;;;;;-1.67;64.18;98053.84;110381;1246;70713;-67
2022/01/18 07:34:52;;;;;;;6.10;3.00;;;;;;;-1.44;63.13;98053.54;110332;1247;68625;-66
2022/01/18 07:37:22;;;;;;;5.80;3.00;;;;;;;-1.40;62.96;98052.27;110584;1245;69456;-69
2022/01/18 07:39:52;;;;;;;5.50;3.60;;;;;;;-1.41;62.45;98047.16;110595;1245;58856;-68
2022/01/18 07:42:23;;;;;;;5.60;3.10;;;;;;;-1.38;63.45;98054.30;110608;1246;58880;-66
2022/01/18 07:44:52;;;;;;;6.80;3.50;;;;;;;-1.39;63.60;98052.43;110326;1244;70821;-64
2022/01/18 07:47:21;;;;;;;5.40;2.70;;;;;;;-0.96;63.45;98060.99;110351;1246;68610;-66
2022/01/18 07:49:51;;;;;;;2.60;2.10;;;;;;;-0.53;62.38;98067.10;110235;1245;69469;-68
2022/01/18 07:52:20;;;;;;;7.30;3.70;;;;;;;-0.50;60.93;98070.65;110144;1245;58910;-67
2022/01/18 07:54:49;;;;;;;6.30;2.90;;;;;;;-0.54;60.69;98073.80;110339;1245;58870;-67
2022/01/18 07:57:20;;;;;;;5.00;3.40;;;;;;;-0.56;60.56;98072.96;110167;1246;70297;-67
2022/01/18 07:59:49;;;;;;;5.80;2.70;;;;;;;-0.54;60.66;98075.16;110115;1247;69187;-65
2022/01/18 08:02:19;;;;;;;4.90;2.60;;;;;;;-0.61;61.56;98081.11;110099;1247;70017;-70
2022/01/18 08:04:48;;;;;;;5.90;3.30;;;;;;;-0.67;61.84;98080.35;110240;1247;58853;-67
2022/01/18 08:07:17;;;;;;;4.00;2.40;;;;;;;-0.75;61.48;98080.66;110391;1244;58930;-65
2022/01/18 08:09:46;;;;;;;5.40;3.30;;;;;;;-0.86;61.57;98089.77;110396;1244;69800;-67
2022/01/18 08:12:17;;;;;;;8.10;3.70;;;;;;;-0.97;61.63;98096.09;110384;1246;68542;-68
2022/01/18 08:14:47;;;;;;;;;;;;;;;-1.04;62.21;98095.51;110383;1245;68879;-65
2022/01/18 08:17:35;;;;;;;7.20;3.90;;;;;;;-1.11;62.35;98096.47;110055;1247;58944;-67
2022/01/18 08:20:04;;;;;;;5.80;3.10;;;;;;;-1.14;62.69;98101.48;110196;1247;58867;-68
2022/01/18 08:22:33;;;;;;;6.80;3.40;;;;;;;-1.25;62.25;98104.55;110576;1246;71335;-68
2022/01/18 08:25:02;;;;;;;4.80;3.00;;;;;;;-1.36;62.80;98113.09;110394;1245;68540;-68
2022/01/18 08:27:32;;;;;;;6.20;3.60;;;;;;;-1.40;62.77;98117.08;110183;1244;68507;-68
2022/01/18 08:30:01;;;;;;;5.40;2.90;;;;;;;-1.48;62.38;98128.48;110141;1247;58922;-69
2022/01/18 08:32:30;;;;;;;5.00;3.00;;;;;;;-1.52;62.37;98129.73;110218;1247;58872;-69
2022/01/18 08:34:59;;;;;;;5.40;3.30;;;;;;;-1.54;62.26;98124.61;110277;1247;70502;-68
2022/01/18 08:37:28;;;;;;;6.50;3.30;;;;;;;-1.57;62.25;98129.79;110418;1246;69225;-68
2022/01/18 08:39:57;;;;;;;3.70;2.50;;;;;;;-1.59;62.82;98123.66;110384;1246;69650;-68
2022/01/18 08:42:26;;;;;;;5.80;3.30;;;;;;;-1.62;62.65;98126.09;110560;1246;58858;-67
2022/01/18 08:44:55;;;;;;;6.20;3.30;;;;;;;-1.64;63.03;98138.09;110521;1242;59302;-68
2022/01/18 08:47:24;;;;;;;5.10;3.30;;;;;;;-1.66;62.79;98138.80;110464;1244;70750;-68
2022/01/18 08:49:53;;;;;;;8.50;4.10;;;;;;;-1.65;62.62;98140.83;110284;1246;67901;-69
2022/01/18 08:52:23;;;;;;;6.00;3.40;;;;;;;-1.65;62.44;98139.80;110318;1247;69535;-70
2022/01/18 08:54:52;;;;;;;6.90;5.00;;;;;;;-1.64;62.83;98143.73;110254;1247;58932;-69
2022/01/18 08:57:20;;;;;;;5.90;3.50;;;;;;;-1.60;62.71;98145.03;110225;1247;58925;-68
2022/01/18 08:59:50;;;;;;;5.20;3.70;;;;;;;-1.61;62.40;98144.20;110216;1246;70665;-69
2022/01/18 09:02:20;;;;;;;6.00;3.60;;;;;;;-1.59;62.26;98143.31;110421;1246;68275;-68
2022/01/18 09:04:50;;;;;;;6.40;4.20;;;;;;;-1.57;62.53;98138.16;110273;1244;69816;-69
2022/01/18 09:07:20;;;;;;;5.00;3.30;;;;;;;-1.49;62.33;98137.88;110295;1247;59273;-69
2022/01/18 09:09:55;;;;;;;5.10;2.90;;;;;;;-1.42;62.42;98129.08;110309;1245;58937;-68
2022/01/18 09:12:24;;;;;;;5.70;3.80;;;;;;;-1.35;62.01;98136.34;110299;1247;71364;-69
2022/01/18 09:14:52;;;;;;;7.20;4.20;;;;;;;-1.29;61.84;98136.42;110426;1244;68681;-65
2022/01/18 09:17:21;;;;;;;6.30;3.80;;;;;;;-1.24;61.49;98144.73;110451;1246;69262;-65
2022/01/18 09:19:50;;;;;;;6.00;3.60;;;;;;;-1.19;61.80;98146.05;110216;1247;58908;-63
2022/01/18 09:22:19;;;;;;;6.00;3.80;;;;;;;-1.10;62.59;98152.92;110226;1247;58932;-64
2022/01/18 09:24:48;;;;;;;7.30;4.20;;;;;;;-0.98;62.05;98150.86;110157;1247;70720;-64
2022/01/18 09:27:17;;;;;;;7.40;4.30;;;;;;;-0.84;61.04;98149.45;110417;1245;67797;-65
2022/01/18 09:29:46;;;;;;;7.10;4.10;;;;;;;-0.56;61.43;98149.68;110231;1245;69908;-68
2022/01/18 09:32:16;;;;;;;7.00;3.30;;;;;;;-0.32;60.47;98150.31;110319;1244;58944;-64
2022/01/18 09:34:45;;;;;;;7.10;3.40;;;;;;;-0.15;59.34;98148.62;110453;1244;58882;-64
2022/01/18 09:37:15;;;;;;;9.70;4.40;;;;;;;0.06;59.51;98148.93;110487;1244;70780;-65
2022/01/18 09:39:44;;;;;;;6.70;3.10;;;;;;;0.17;57.60;98143.05;110162;1246;69095;-69
2022/01/18 09:42:14;;;;;;;6.40;3.60;;;;;;;0.33;57.79;98145.98;110284;1244;68597;-66
2022/01/18 09:44:45;;;;;;;;;;;;;;;0.56;56.38;98140.88;110578;1244;58788;-66
2022/01/18 09:47:14;;;;;;;7.30;3.30;;;;;;;0.91;56.10;98129.32;110555;1243;58876;-66
2022/01/18 09:49:43;;;;;;;6.80;3.60;;;;;;;1.23;54.58;98120.66;110224;1244;70052;-66
2022/01/18 09:52:12;;;;;;;7.50;3.60;;;;;;;1.93;53.78;98124.02;110505;1244;69217;-65
2022/01/18 09:54:42;;;;;;;4.20;3.10;;;;;;;2.78;51.29;98114.89;110272;1247;68634;-64
2022/01/18 09:57:11;;;;;;;4.90;3.50;;;;;;;3.62;49.73;98111.00;110378;1247;58935;-66
2022/01/18 09:59:40;;;;;;;5.80;3.90;;;;;;;4.15;48.37;98113.98;110276;1244;59319;-65
2022/01/18 10:02:10;;;;;;;5.30;3.40;;;;;;;4.07;47.54;98113.74;110586;1244;70542;-67
2022/01/18 10:04:40;;;;;;;;;;;;;;;4.87;46.15;98116.84;110402;1245;68997;-65
2022/01/18 10:07:10;;;;;;;4.40;3.00;;;;;;;5.19;45.28;98114.55;110410;1245;69204;-65
2022/01/18 10:09:39;;;;;;;4.60;2.60;;;;;;;5.69;43.24;98123.72;110607;1243;58945;-65
2022/01/18 10:12:14;;;;;;;5.50;3.20;;;;;;;6.08;41.88;98127.46;110570;1244;58872;-65
2022/01/18 10:14:54;;;;;;;6.40;4.00;;;;;;;5.72;42.08;98133.83;110559;1245;69890;-65
2022/01/18 10:17:37;;;;;;;5.60;3.50;;;;;;;5.08;42.65;98130.88;110329;1247;68617;-65
2022/01/18 10:20:18;;;;;;;4.50;3.40;;;;;;;4.22;44.64;98123.55;110561;1244;69254;-70
2022/01/18 10:22:49;;;;;;;7.40;4.20;;;;;;;3.76;46.59;98126.55;110627;1244;58873;-68
2022/01/18 10:25:23;;;;;;;5.20;3.30;;;;;;;3.76;47.07;98127.94;110575;1244;58846;-71
2022/01/18 10:27:53;;;;;;;6.40;3.80;;;;;;;3.93;47.99;98129.25;110278;1245;70037;-65
2022/01/18 10:30:35;;;;;;;4.20;3.30;;;;;;;4.44;46.80;98132.24;110602;1244;68600;-68
2022/01/18 10:33:17;;;;;;;6.50;4.30;;;;;;;4.39;46.49;98137.43;110246;1245;67658;-68
2022/01/18 10:36:12;;;;;;;9.10;4.50;;;;;;;3.94;47.27;98132.16;110587;1244;58942;-65
2022/01/18 10:38:44;;;;;;;6.40;4.30;;;;;;;3.55;48.19;98135.86;110567;1244;58945;-68
2022/01/18 10:41:30;;;;;;;7.30;5.50;;;;;;;3.45;48.18;98133.81;110640;1244;71218;-68
2022/01/18 10:44:14;;;;;;;8.70;4.40;;;;;;;3.14;48.43;98127.05;110589;1244;69030;-66
2022/01/18 10:46:50;;;;;;;10.20;6.70;;;;;;;2.94;49.33;98129.20;110467;1244;68944;-68
2022/01/18 10:49:31;;;;;;;5.80;4.00;;;;;;;2.86;50.33;98129.80;110282;1245;58902;-67
2022/01/18 10:52:24;;;;;;;11.20;5.50;;;;;;;2.98;50.81;98134.76;110288;1245;58833;-67
2022/01/18 10:54:56;;;;;;;6.40;4.70;;;;;;;2.80;50.01;98137.20;110544;1244;70570;-69
2022/01/18 10:57:27;;;;;;;6.80;3.60;;;;;;;2.42;50.42;98142.45;110613;1244;67197;-69
2022/01/18 11:00:07;;;;;;;8.60;4.60;;;;;;;2.14;51.44;98144.27;110530;1244;68604;-70
2022/01/18 11:02:38;;;;;;;;;;;;;;;1.91;51.96;98141.78;110315;1245;58925;-64
2022/01/18 11:05:16;;;;;;;8.90;4.90;;;;;;;1.81;52.63;98142.23;110353;1246;58964;-65
2022/01/18 11:07:48;;;;;;;6.30;3.90;;;;;;;1.65;53.16;98151.39;110305;1244;70735;-64
2022/01/18 11:10:22;;;;;;;6.40;3.70;;;;;;;1.48;53.38;98152.17;110350;1245;68592;-65
2022/01/18 11:13:10;;;;;;;6.70;4.40;;;;;;;1.41;53.22;98152.85;110577;1244;68689;-70
2022/01/18 11:15:45;;;;;;;4.90;3.30;;;;;;;1.31;52.93;98145.38;110356;1244;58857;-69
2022/01/18 11:18:25;;;;;;;7.10;4.00;;;;;;;1.38;53.71;98149.66;110316;1245;58825;-67
2022/01/18 11:20:56;;;;;;;5.60;3.70;;;;;;;1.52;53.12;98148.96;110040;1247;70694;-69
2022/01/18 11:23:30;;;;;;;6.20;3.70;;;;;;;1.51;52.72;98145.90;110279;1245;67929;-67
2022/01/18 11:26:03;;;;;;;5.60;3.30;;;;;;;1.57;53.12;98149.35;110305;1244;69430;-69
2022/01/18 11:28:34;;;;;;;5.80;3.40;;;;;;;1.58;52.82;98143.15;110331;1247;59170;-68
2022/01/18 11:31:10;;;;;;;5.40;4.10;;;;;;;1.54;53.22;98151.33;110524;1244;58832;-65
2022/01/18 11:33:53;;;;;;;10.60;5.30;;;;;;;1.84;52.69;98150.89;110364;1245;70329;-64
2022/01/18 11:36:29;;;;;;;13.10;5.90;;;;;;;3.14;50.29;98151.11;110221;1245;68487;-66
2022/01/18 11:39:07;;;;;;;14.10;5.80;;;;;;;3.78;48.58;98147.70;110321;1244;69583;-70
2022/01/18 11:41:39;;;;;;;13.20;6.20;;;;;;;3.81;48.04;98146.39;110522;1244;58903;-65
2022/01/18 11:44:17;;;;;;;4.60;3.20;;;;;;;4.38;48.63;98148.02;110418;1244;58886;-67
2022/01/18 11:46:50;;;;;;;12.40;3.90;;;;;;;4.98;48.53;98157.67;110318;1244;70784;-69
2022/01/18 11:49:30;;;;;;;7.70;4.50;;;;;;;5.89;43.37;98161.80;110585;1244;67764;-66
2022/01/18 11:52:05;;;;;;;6.90;3.50;;;;;;;5.68;43.32;98169.95;110314;1244;68663;-69
2022/01/18 11:55:06;;;;;;;7.00;4.40;;;;;;;5.03;43.77;98166.46;110299;1244;58932;-66
2022/01/18 11:57:35;;;;;;;11.40;4.90;;;;;;;5.03;43.76;98175.10;110153;1244;58840;-70
2022/01/18 12:00:23;;;;;;;5.10;3.10;;;;;;;4.93;44.53;98175.84;110487;1244;69938;-65
2022/01/18 12:02:56;;;;;;;6.20;3.20;;;;;;;4.71;45.00;98172.00;110392;1245;69106;-65
2022/01/18 12:05:26;;;;;;;6.50;4.10;;;;;;;5.15;44.45;98172.38;110282;1244;69384;-64
2022/01/18 12:07:59;;;;;;;5.60;3.80;;;;;;;5.76;43.33;98169.80;110076;1248;58932;-69
2022/01/18 12:10:38;;;;;;;5.20;3.20;;;;;;;6.02;41.73;98178.08;110349;1246;58853;-66
2022/01/18 12:13:11;;;;;;;4.60;2.90;;;;;;;6.85;41.52;98174.97;110281;1245;70219;-65
2022/01/18 12:15:43;;;;;;;3.50;2.90;;;;;;;7.26;40.31;98176.86;110497;1244;68603;-66
2022/01/18 12:18:17;;;;;;;7.40;3.80;;;;;;;8.03;38.70;98183.02;110293;1246;68688;-70
2022/01/18 12:20:56;;;;;;;6.10;3.10;;;;;;;7.83;37.78;98183.46;110199;1244;59007;-69
2022/01/18 12:23:28;;;;;;;8.20;3.50;;;;;;;7.92;38.16;98184.23;110336;1244;58888;-65
2022/01/18 12:26:41;;;;;;;5.10;3.50;;;;;;;8.75;36.95;98192.69;110294;1245;70809;-65
2022/01/18 12:29:46;;;;;;;5.10;3.10;;;;;;;9.91;35.36;98192.67;110261;1245;67873;-65
2022/01/18 12:32:40;;;;;;;6.20;2.90;;;;;;;10.79;33.23;98192.67;110468;1244;68633;-65
2022/01/18 12:35:22;;;;;;;5.40;2.80;;;;;;;11.49;33.19;98188.00;110237;1244;58876;-65
2022/01/18 12:37:53;;;;;;;6.20;3.10;;;;;;;11.77;32.65;98193.68;110296;1245;58906;-69
2022/01/18 12:40:26;;;;;;;4.60;2.70;;;;;;;11.05;32.50;98198.80;110034;1247;69840;-69
2022/01/18 12:45:33;;;;;;;5.40;3.00;;;;;;;9.39;35.84;98194.78;110451;1244;69183;-66
2022/01/18 12:48:09;;;;;;;5.60;3.40;;;;;;;8.42;37.27;98196.80;110451;1243;58854;-65
2022/01/18 12:50:41;;;;;;;4.60;2.70;;;;;;;7.87;37.75;98195.59;110281;1244;58933;-65
2022/01/18 12:53:15;;;;;;;6.00;3.90;;;;;;;8.08;37.55;98197.70;110306;1244;69840;-64
2022/01/18 12:55:55;;;;;;;6.40;3.70;;;;;;;7.59;36.88;98196.23;110534;1244;67621;-67